Time;durP1;ratioP1;P1;durP2;ratioP2;P2;SDS_P1;SDS_P2;PMS_P1;PMS_P2;Temp;Humidity;BMP_temperature;BMP_pressure;BME280_temperature;BME280_humidity;BME280_pressure;Samples;Min_cycle;Max_cycle;Signal;HPM_P1;HPM_P2
2024/03/06 00:00:00;;;;;;;18.10;12.40;;;;;;;10.15;59.12;98694.34;7057502;28;20235;-85
2024/03/06 00:03:23;;;;;;;16.10;11.87;;;;;;;10.00;59.49;98644.34;7058278;28;20208;-85
2024/03/06 00:06:45;;;;;;;15.30;11.90;;;;;;;11.12;59.32;98784.38;7051873;28;20718;-85
2024/03/06 00:10:07;;;;;;;15.53;12.20;;;;;;;11.01;59.46;98791.25;7057818;28;20366;-85
2024/03/06 00:13:28;;;;;;;14.97;12.20;;;;;;;11.14;59.38;98810.13;7058377;28;20285;-85
2024/03/06 00:16:50;;;;;;;17.33;13.07;;;;;;;11.31;59.06;98814.03;7058029;28;20240;-86
2024/03/06 00:20:14;;;;;;;15.00;12.97;;;;;;;11.15;58.88;98822.56;7057117;28;20225;-85
2024/03/06 00:23:37;;;;;;;16.23;12.30;;;;;;;11.07;58.48;98778.78;7058122;28;20235;-85
2024/03/06 00:26:58;;;;;;;19.47;12.67;;;;;;;10.26;58.96;98688.34;7058234;28;20666;-85
2024/03/06 00:30:20;;;;;;;14.93;12.00;;;;;;;10.49;58.88;98723.81;7062476;28;20259;-85
2024/03/06 00:33:41;;;;;;;20.00;13.00;;;;;;;10.83;58.82;98747.03;7062865;28;20207;-86
2024/03/06 00:37:05;;;;;;;15.73;12.27;;;;;;;11.33;58.79;98821.94;7062400;28;20201;-85
2024/03/06 00:40:26;;;;;;;16.87;12.67;;;;;;;11.01;58.42;98820.91;7062312;28;20693;-85
2024/03/06 00:43:48;;;;;;;16.33;12.53;;;;;;;11.21;59.07;98826.31;7062582;28;20288;-87
2024/03/06 00:47:09;;;;;;;17.70;12.83;;;;;;;10.87;59.31;98743.72;7062211;28;20211;-85
2024/03/06 00:50:31;;;;;;;14.87;12.33;;;;;;;11.37;58.88;98810.50;7062627;28;20224;-85
2024/03/06 00:53:54;;;;;;;15.40;12.33;;;;;;;11.27;58.72;98795.78;7062804;28;20346;-85
2024/03/06 00:57:16;;;;;;;16.60;13.10;;;;;;;11.19;58.29;98788.72;7062015;28;20314;-85
2024/03/06 01:00:38;;;;;;;16.33;12.50;;;;;;;11.17;58.85;98819.66;7061320;28;20204;-85
2024/03/06 01:03:59;;;;;;;14.30;11.33;;;;;;;11.25;58.50;98809.50;7062261;28;20204;-85
2024/03/06 01:07:22;;;;;;;15.37;12.43;;;;;;;10.25;59.16;98716.31;7062461;28;20228;-85
2024/03/06 01:10:45;;;;;;;18.33;12.13;;;;;;;9.26;61.53;98688.41;7061859;28;20232;-85
2024/03/06 01:14:07;;;;;;;17.03;13.83;;;;;;;10.17;60.57;98754.22;7062647;28;20570;-85
2024/03/06 01:17:28;;;;;;;16.97;13.30;;;;;;;10.53;60.42;98773.59;7063065;28;20264;-85
2024/03/06 01:20:50;;;;;;;19.90;14.27;;;;;;;10.10;59.89;98707.56;7061376;28;20204;-85
2024/03/06 01:24:12;;;;;;;21.87;13.70;;;;;;;10.40;60.22;98732.31;7062394;28;20208;-85
2024/03/06 01:27:35;;;;;;;18.43;12.90;;;;;;;10.62;60.02;98739.97;7061615;28;20228;-85
2024/03/06 01:30:58;;;;;;;19.27;13.73;;;;;;;10.68;59.43;98790.38;7060260;28;20216;-85
2024/03/06 01:34:20;;;;;;;17.53;12.73;;;;;;;9.91;59.95;98694.03;7058451;28;20444;-85
2024/03/06 01:37:41;;;;;;;17.47;13.50;;;;;;;10.73;60.28;98817.56;7056465;28;20231;-85
2024/03/06 01:41:04;;;;;;;16.97;12.63;;;;;;;11.00;59.28;98802.22;7059194;28;20211;-85
2024/03/06 01:44:27;;;;;;;15.93;12.00;;;;;;;11.22;59.28;98825.28;7060719;28;20208;-85
2024/03/06 01:47:50;;;;;;;15.60;11.60;;;;;;;10.90;59.07;98777.53;7060907;28;20274;-85
2024/03/06 01:51:12;;;;;;;14.93;12.00;;;;;;;10.72;59.38;98813.22;7060400;28;20602;-87
2024/03/06 01:54:33;;;;;;;16.37;12.57;;;;;;;10.30;59.36;98724.63;7061753;28;20675;-85
2024/03/06 01:57:55;;;;;;;18.33;13.77;;;;;;;9.91;61.55;98828.69;7061420;28;20227;-85
2024/03/06 02:01:19;;;;;;;21.47;13.67;;;;;;;9.57;62.17;98729.16;7060918;28;20219;-85
2024/03/06 02:04:40;;;;;;;18.33;13.53;;;;;;;10.29;61.29;98782.25;7061334;28;20289;-85
2024/03/06 02:08:03;;;;;;;18.00;12.17;;;;;;;10.54;60.85;98806.75;7059951;28;20216;-86
2024/03/06 02:11:25;;;;;;;19.33;13.30;;;;;;;10.51;60.73;98821.47;7060371;28;20224;-85
2024/03/06 02:14:46;;;;;;;19.60;13.87;;;;;;;9.21;62.89;98780.47;7060137;28;20603;-86
2024/03/06 02:18:09;;;;;;;21.53;14.03;;;;;;;10.00;62.48;98819.41;7059744;28;20273;-85
2024/03/06 02:21:33;;;;;;;17.23;12.97;;;;;;;9.46;61.76;98678.59;7060354;28;20253;-85
2024/03/06 02:24:55;;;;;;;17.27;12.33;;;;;;;10.00;61.35;98749.38;7066720;28;20279;-86
2024/03/06 02:28:16;;;;;;;16.90;12.40;;;;;;;10.50;61.14;98825.19;7066237;28;20236;-86
2024/03/06 02:31:39;;;;;;;15.53;12.53;;;;;;;10.23;60.93;98749.91;7065300;28;20235;-84
2024/03/06 02:35:02;;;;;;;16.67;13.07;;;;;;;10.14;60.39;98699.91;7065651;28;20206;-84
2024/03/06 02:38:25;;;;;;;15.37;11.10;;;;;;;10.68;60.67;98814.66;7064956;28;20719;-84
2024/03/06 02:41:48;;;;;;;16.47;11.80;;;;;;;10.07;60.37;98717.94;7066486;28;20285;-85
2024/03/06 02:45:10;;;;;;;15.90;11.13;;;;;;;10.33;60.40;98742.25;7065766;28;20200;-84
2024/03/06 02:48:32;;;;;;;14.03;11.37;;;;;;;10.25;60.20;98713.63;7064744;28;20232;-84
2024/03/06 02:51:54;;;;;;;13.80;10.57;;;;;;;10.51;60.52;98788.31;7065565;28;20227;-84
2024/03/06 02:55:17;;;;;;;16.50;10.50;;;;;;;10.36;60.25;98737.28;7064948;28;20256;-85
2024/03/06 02:58:39;;;;;;;17.50;11.50;;;;;;;10.76;59.83;98827.97;7061661;28;20232;-84
2024/03/06 03:02:01;;;;;;;15.90;11.80;;;;;;;9.82;60.72;98714.97;7093779;27;20658;-84
2024/03/06 03:05:23;;;;;;;15.37;12.97;;;;;;;10.77;60.15;98801.81;7093837;27;20575;-84
2024/03/06 03:08:45;;;;;;;16.07;11.80;;;;;;;10.70;59.91;98785.59;7093544;27;20220;-84
2024/03/06 03:12:11;;;;;;;16.17;10.57;;;;;;;10.71;60.50;98792.69;7093658;27;20199;-85
2024/03/06 03:15:37;;;;;;;14.60;10.93;;;;;;;10.17;59.86;98761.47;7093374;27;20206;-84
2024/03/06 03:18:58;;;;;;;13.40;10.27;;;;;;;9.74;60.40;98682.81;7093088;27;20223;-84
2024/03/06 03:22:35;;;;;;;14.50;11.23;;;;;;;10.65;60.59;98782.72;7094287;27;20212;-85
2024/03/06 03:25:57;;;;;;;14.70;11.17;;;;;;;10.38;60.19;98753.22;7033087;28;20658;-84
2024/03/06 03:29:26;;;;;;;16.00;11.77;;;;;;;10.84;60.65;98794.53;7033847;28;20224;-84
2024/03/06 03:32:48;;;;;;;14.07;10.60;;;;;;;10.81;61.17;98838.94;7034147;28;20596;-85
2024/03/06 03:36:10;;;;;;;13.57;11.23;;;;;;;10.62;60.47;98793.91;7033887;28;20410;-84
2024/03/06 03:39:40;;;;;;;15.10;10.40;;;;;;;10.75;60.02;98852.44;7032128;28;20229;-84
2024/03/06 03:43:06;;;;;;;13.87;9.87;;;;;;;10.44;60.78;98809.00;7033183;28;20215;-84
2024/03/06 03:46:29;;;;;;;14.60;10.80;;;;;;;10.80;60.78;98844.56;7034278;28;20561;-84
2024/03/06 03:49:54;;;;;;;12.23;10.17;;;;;;;10.54;61.56;98833.69;7033040;28;20229;-86
2024/03/06 03:53:15;;;;;;;13.63;10.50;;;;;;;10.47;61.46;98797.81;7032679;28;20216;-84
2024/03/06 03:56:37;;;;;;;14.50;10.87;;;;;;;10.49;61.74;98810.06;7032857;28;20220;-84
2024/03/06 03:59:59;;;;;;;15.73;9.73;;;;;;;10.71;61.33;98824.19;7032360;28;20225;-86
2024/03/06 04:03:25;;;;;;;14.30;10.87;;;;;;;10.17;61.85;98758.78;7077042;27;20208;-86
2024/03/06 04:06:47;;;;;;;13.33;10.20;;;;;;;10.03;60.97;98738.22;7097741;27;20204;-86
2024/03/06 04:10:24;;;;;;;11.73;9.93;;;;;;;10.92;61.26;98859.91;7095949;27;20708;-87
2024/03/06 04:14:08;;;;;;;11.97;9.97;;;;;;;11.00;61.29;98864.28;7095473;27;20203;-85
2024/03/06 04:18:10;;;;;;;14.90;10.73;;;;;;;10.92;61.20;98864.50;7098363;27;20263;-85
2024/03/06 04:21:58;;;;;;;11.83;10.57;;;;;;;11.17;61.20;98873.63;7098727;27;20203;-84
2024/03/06 04:25:20;;;;;;;13.13;10.63;;;;;;;10.90;61.51;98867.38;7097800;27;20227;-85
2024/03/06 04:28:42;;;;;;;14.67;12.17;;;;;;;10.87;61.70;98867.78;7098864;27;20617;-85
2024/03/06 04:32:10;;;;;;;14.67;10.63;;;;;;;11.07;61.06;98884.84;7099258;27;20301;-86
2024/03/06 04:35:32;;;;;;;11.57;9.33;;;;;;;11.00;60.92;98875.06;7098594;27;20340;-84
2024/03/06 04:38:58;;;;;;;10.37;8.63;;;;;;;11.30;61.01;98870.94;7097059;27;20298;-85
2024/03/06 04:46:01;;;;;;;10.77;9.37;;;;;;;11.20;60.58;98890.25;7097391;27;20199;-84
2024/03/06 04:49:23;;;;;;;11.27;8.80;;;;;;;11.40;60.20;98893.75;7097963;27;20231;-84
2024/03/06 04:52:53;;;;;;;10.53;8.97;;;;;;;11.22;60.83;98890.84;7098876;27;20214;-86
2024/03/06 04:57:14;;;;;;;12.97;10.03;;;;;;;11.10;60.88;98892.50;7098065;27;20207;-86
2024/03/06 05:00:52;;;;;;;11.83;8.93;;;;;;;10.85;60.86;98906.78;7063070;27;20200;-85
2024/03/06 05:05:00;;;;;;;12.47;9.00;;;;;;;10.98;61.93;98907.63;7098435;27;20214;-85
2024/03/06 05:08:52;;;;;;;16.90;9.77;;;;;;;10.91;61.71;98906.81;7096052;27;20303;-85
2024/03/06 05:12:14;;;;;;;12.27;8.97;;;;;;;10.76;62.24;98911.56;7093833;27;20224;-85
2024/03/06 05:15:36;;;;;;;10.13;8.33;;;;;;;10.79;62.47;98913.84;7098327;27;20196;-84
2024/03/06 05:19:00;;;;;;;9.53;8.43;;;;;;;10.76;62.50;98921.50;7098481;27;20231;-84
2024/03/06 05:22:23;;;;;;;10.10;9.03;;;;;;;11.10;61.71;98913.28;7098493;27;20203;-84
2024/03/06 05:25:45;;;;;;;9.63;8.63;;;;;;;11.30;61.09;98916.81;7098053;27;20228;-85
2024/03/06 05:29:07;;;;;;;9.97;8.97;;;;;;;11.19;60.79;98893.97;7098538;27;20224;-85
2024/03/06 05:32:28;;;;;;;11.67;8.87;;;;;;;11.19;60.56;98893.13;7096303;27;20577;-85
2024/03/06 05:35:55;;;;;;;9.47;8.43;;;;;;;11.39;60.95;98921.78;7094109;27;20716;-86
2024/03/06 05:39:22;;;;;;;9.53;8.53;;;;;;;11.48;60.66;98923.25;7071092;27;20229;-85
2024/03/06 05:42:47;;;;;;;12.07;8.90;;;;;;;11.53;60.61;98933.44;7078455;27;20200;-86
2024/03/06 05:46:12;;;;;;;10.00;8.40;;;;;;;11.59;60.40;98938.88;7083271;27;20232;-86
2024/03/06 05:49:37;;;;;;;11.17;9.90;;;;;;;11.21;60.32;98877.59;7074706;27;20232;-86
2024/03/06 05:53:36;;;;;;;11.87;9.43;;;;;;;11.53;60.56;98938.84;7070922;27;20204;-89
2024/03/06 06:22:19;;;;;;;15.60;11.80;;;;;;;11.43;61.50;98979.75;6855994;29;20159;-87
2024/03/06 06:26:32;;;;;;;15.07;11.57;;;;;;;11.57;61.54;98989.50;6839391;28;20666;-87
2024/03/06 06:29:54;;;;;;;15.67;12.93;;;;;;;10.81;61.58;98890.16;6764304;29;20245;-87
2024/03/06 06:33:17;;;;;;;15.00;12.73;;;;;;;11.48;61.67;98992.63;6786431;29;20211;-86
2024/03/06 06:36:40;;;;;;;17.17;13.33;;;;;;;11.24;61.74;98956.28;6784763;29;20208;-86
2024/03/06 06:44:16;;;;;;;15.10;12.40;;;;;;;10.99;62.04;98938.97;6736059;29;20205;-85
2024/03/06 07:25:30;;;;;;;15.37;11.87;;;;;;;11.05;61.98;98967.03;7001347;28;20225;-87
2024/03/06 07:29:14;;;;;;;14.97;11.67;;;;;;;10.54;61.87;98876.84;6901892;28;20236;-87
2024/03/06 07:33:08;;;;;;;19.27;12.00;;;;;;;10.56;62.14;98864.00;7008211;28;20764;-88
2024/03/06 07:41:24;;;;;;;;;;;;;;;;;;;;;
2024/03/06 09:13:27;;;;;;;14.67;12.73;;;;;;;11.49;61.62;99056.38;7003114;28;20252;-87
2024/03/06 09:16:50;;;;;;;14.87;11.97;;;;;;;11.70;61.22;99064.34;7007585;28;20238;-87
2024/03/06 09:29:14;;;;;;;14.73;12.83;;;;;;;11.11;62.05;99029.06;6979034;28;20210;-90
2024/03/06 09:33:04;;;;;;;16.77;13.60;;;;;;;10.86;62.08;98975.91;6979872;28;20210;-85
2024/03/06 09:36:44;;;;;;;14.80;12.77;;;;;;;11.18;62.99;99094.72;6979150;28;20846;-86
2024/03/06 10:24:00;;;;;;;16.97;15.17;;;;;;;11.82;62.39;99105.94;7768208;22;20242;-83
2024/03/06 10:27:30;;;;;;;16.53;14.83;;;;;;;12.03;61.91;99114.69;6950173;28;20327;-89
2024/03/06 10:31:55;;;;;;;21.33;16.73;;;;;;;11.57;61.44;98976.00;6966483;28;20384;-87
2024/03/06 10:35:20;;;;;;;23.53;17.70;;;;;;;11.98;60.64;99014.47;6968316;28;20642;-85
2024/03/06 10:51:23;;;;;;;20.50;15.90;;;;;;;12.14;61.08;99088.88;7372661;23;20867;-90
2024/03/06 11:30:24;;;;;;;22.27;17.80;;;;;;;12.46;61.53;99115.09;6626672;29;20769;-86
2024/03/06 11:33:55;;;;;;;24.20;19.97;;;;;;;11.72;61.89;99040.66;6658242;29;20328;-88
2024/03/06 11:37:22;;;;;;;26.33;20.07;;;;;;;11.95;62.45;99084.31;6731846;29;20205;-88
2024/03/06 11:40:45;;;;;;;28.07;21.07;;;;;;;11.69;62.07;99043.78;6803947;29;20210;-86
2024/03/06 11:44:08;;;;;;;25.67;19.40;;;;;;;12.36;62.25;99126.34;6804608;29;20647;-86
2024/03/06 11:47:31;;;;;;;25.00;19.77;;;;;;;11.73;61.46;99031.50;6808966;29;20221;-86
2024/03/06 11:50:55;;;;;;;25.67;19.07;;;;;;;12.58;61.46;99119.63;6832452;28;20237;-86
2024/03/06 11:54:17;;;;;;;25.70;20.43;;;;;;;12.59;61.54;99118.63;6832750;29;20209;-86
2024/03/06 11:57:39;;;;;;;24.37;18.83;;;;;;;12.06;61.75;99013.44;6832725;28;20226;-86
2024/03/06 12:01:05;;;;;;;24.43;19.53;;;;;;;11.89;61.75;99021.16;6823910;29;20214;-85
2024/03/06 12:04:30;;;;;;;27.83;21.07;;;;;;;12.12;62.22;99066.66;6832138;29;20288;-86
2024/03/06 12:07:52;;;;;;;28.30;20.63;;;;;;;12.24;61.88;99064.97;6868727;28;20223;-87
2024/03/06 12:11:20;;;;;;;28.33;20.77;;;;;;;11.80;62.44;99025.06;6939071;28;20230;-87
2024/03/06 12:14:42;;;;;;;30.37;21.60;;;;;;;12.75;61.72;99118.16;6952722;28;20198;-86
2024/03/06 12:18:09;;;;;;;30.10;21.70;;;;;;;12.23;61.77;99053.31;6943079;28;20446;-86
2024/03/06 12:21:33;;;;;;;27.10;21.53;;;;;;;12.82;61.31;99120.88;6943371;28;20282;-87
2024/03/06 12:25:01;;;;;;;28.83;21.10;;;;;;;12.91;61.36;99117.72;6946036;28;20744;-87
2024/03/06 12:28:25;;;;;;;28.17;22.47;;;;;;;12.65;61.98;99103.41;6976964;23;20704;-85
2024/03/06 12:32:00;;;;;;;28.93;21.73;;;;;;;12.77;61.37;99121.50;6910415;28;20232;-84
2024/03/06 12:35:25;;;;;;;32.00;23.33;;;;;;;12.83;61.83;99107.13;6919857;28;20215;-87
2024/03/06 12:38:55;;;;;;;30.50;21.77;;;;;;;12.60;61.65;99114.88;6921712;28;20223;-86
2024/03/06 12:42:18;;;;;;;35.93;23.40;;;;;;;12.78;61.88;99116.91;6917838;28;20279;-87
2024/03/06 12:45:44;;;;;;;31.80;24.80;;;;;;;12.20;61.10;98988.88;6908908;28;20247;-88
2024/03/06 12:49:06;;;;;;;29.47;22.43;;;;;;;11.85;60.83;98952.34;6889947;28;20322;-87
2024/03/06 12:52:28;;;;;;;33.10;24.40;;;;;;;12.35;61.49;99073.31;6891690;28;20229;-88
2024/03/06 12:55:52;;;;;;;32.90;25.30;;;;;;;12.70;61.12;99074.66;6901294;28;20203;-88
2024/03/06 12:59:29;;;;;;;29.07;21.30;;;;;;;11.60;60.81;98969.41;6916462;28;20308;-87
2024/03/06 13:02:56;;;;;;;27.23;21.20;;;;;;;12.53;61.42;99076.19;6919888;28;20200;-86
2024/03/06 13:06:18;;;;;;;27.13;21.23;;;;;;;12.17;61.14;99005.50;6919219;28;20192;-88
2024/03/06 13:09:59;;;;;;;27.07;20.33;;;;;;;12.31;61.49;99046.88;6920694;28;20361;-88
2024/03/06 13:13:25;;;;;;;29.17;22.37;;;;;;;11.91;61.04;98965.03;6922035;28;20259;-88
2024/03/06 13:16:49;;;;;;;28.70;21.47;;;;;;;11.74;60.94;98963.78;6929124;28;20206;-88
2024/03/06 13:20:12;;;;;;;29.47;22.23;;;;;;;12.08;61.38;98992.44;6922384;28;20696;-88
2024/03/06 13:23:34;;;;;;;27.50;20.53;;;;;;;11.83;61.42;98961.69;6918011;28;20204;-88
2024/03/06 13:27:03;;;;;;;27.07;19.70;;;;;;;12.27;60.85;99043.75;6917076;28;20287;-88
2024/03/06 13:30:26;;;;;;;26.20;21.03;;;;;;;12.48;62.25;99104.88;6916019;28;20218;-88
2024/03/06 13:33:48;;;;;;;31.80;23.83;;;;;;;12.16;61.54;98987.63;6917016;28;20199;-86
2024/03/06 13:37:10;;;;;;;32.50;24.17;;;;;;;12.58;61.17;99013.34;6916274;28;20287;-89
2024/03/06 13:40:49;;;;;;;33.47;24.03;;;;;;;12.95;61.25;99085.63;6916473;28;20690;-88
2024/03/06 13:44:51;;;;;;;27.93;22.27;;;;;;;12.62;61.68;99106.56;6916787;28;20200;-88
2024/03/06 15:02:47;;;;;;;23.90;16.53;;;;;;;12.30;63.13;99116.34;6914177;28;20642;-89
2024/03/06 16:05:32;;;;;;;41.27;27.63;;;;;;;12.49;63.73;99126.31;6742124;29;20279;-87
2024/03/06 16:08:54;;;;;;;43.97;28.33;;;;;;;12.49;64.31;99142.56;6790656;29;20270;-86
2024/03/06 16:12:16;;;;;;;51.10;31.73;;;;;;;12.43;63.79;99075.78;6811757;29;20253;-86
2024/03/06 16:28:08;;;;;;;46.17;31.67;;;;;;;13.09;62.74;99154.97;6742072;29;20239;-87
2024/03/06 16:37:05;;;;;;;47.50;32.03;;;;;;;13.03;63.09;99172.88;6589883;29;20618;-88
2024/03/06 17:47:19;;;;;;;56.60;35.57;;;;;;;12.94;63.86;99198.50;6807849;28;20214;-87
2024/03/06 17:54:38;;;;;;;61.67;38.33;;;;;;;12.70;63.66;99155.03;6780584;29;20210;-87
2024/03/06 17:58:25;;;;;;;63.37;39.10;;;;;;;12.47;63.85;99141.09;6787845;29;20243;-85
2024/03/06 18:06:06;;;;;;;57.87;37.07;;;;;;;12.99;63.03;99176.25;6666992;29;20225;-87
2024/03/06 18:09:28;;;;;;;72.20;44.40;;;;;;;13.00;63.60;99207.66;6723651;29;20227;-86
2024/03/06 18:12:51;;;;;;;63.40;41.47;;;;;;;13.16;63.18;99215.34;6782675;29;20235;-86
2024/03/06 18:16:33;;;;;;;61.20;39.53;;;;;;;12.12;62.84;99037.78;6785920;29;20211;-86
2024/03/06 18:19:54;;;;;;;61.93;38.90;;;;;;;12.78;63.53;99176.44;6787867;29;20253;-85
2024/03/06 18:23:17;;;;;;;59.27;35.97;;;;;;;13.16;63.05;99218.06;6786657;29;20704;-86
2024/03/06 18:26:39;;;;;;;60.53;36.77;;;;;;;13.23;62.58;99183.69;6786681;29;20207;-86
2024/03/06 18:30:01;;;;;;;65.23;38.60;;;;;;;13.07;63.18;99227.44;6785789;29;20241;-87
2024/03/06 18:33:23;;;;;;;60.17;37.40;;;;;;;13.17;63.22;99208.91;6783327;29;20706;-87
2024/03/06 18:36:44;;;;;;;59.43;36.00;;;;;;;13.29;62.82;99218.84;6784121;29;20233;-87
2024/03/06 18:40:10;;;;;;;57.00;35.43;;;;;;;13.13;62.71;99218.47;6783353;29;20242;-87
2024/03/06 18:43:31;;;;;;;52.17;33.57;;;;;;;13.05;62.10;99178.09;6783441;29;20219;-86
2024/03/06 18:46:57;;;;;;;55.70;35.93;;;;;;;13.23;62.39;99214.28;6782126;29;20363;-86
2024/03/06 18:50:20;;;;;;;65.17;37.43;;;;;;;12.44;62.85;99136.09;6775434;29;20601;-85
2024/03/06 18:53:42;;;;;;;75.40;42.00;;;;;;;12.62;63.57;99180.41;6785151;29;20231;-85
2024/03/06 18:57:06;;;;;;;65.27;40.80;;;;;;;12.04;63.32;99085.78;6782900;29;20242;-86
2024/03/06 19:00:43;;;;;;;55.63;36.70;;;;;;;12.21;62.87;99078.94;6783244;29;20218;-86
2024/03/06 19:04:29;;;;;;;59.57;36.57;;;;;;;12.32;63.06;99089.94;6783871;29;20339;-85
2024/03/06 20:38:49;;;;;;;55.50;35.63;;;;;;;11.90;63.33;99092.22;6892470;28;1265954;-85
2024/03/06 20:42:25;;;;;;;55.57;34.53;;;;;;;12.60;64.25;99243.88;6854861;28;20339;-86
2024/03/06 21:02:19;;;;;;;55.90;35.50;;;;;;;12.72;63.48;99231.38;6988122;28;20234;-86
2024/03/06 21:05:41;;;;;;;55.13;36.60;;;;;;;12.61;63.52;99245.53;6973990;28;20589;-86
2024/03/06 21:09:03;;;;;;;55.73;35.13;;;;;;;12.21;63.98;99179.75;6972514;28;20323;-86
2024/03/06 21:12:25;;;;;;;56.83;35.30;;;;;;;12.65;63.56;99247.63;6973927;28;20222;-86
2024/03/06 21:15:46;;;;;;;50.30;34.57;;;;;;;12.72;63.92;99255.75;6973466;28;20401;-86
2024/03/06 21:19:09;;;;;;;56.40;35.67;;;;;;;12.92;63.09;99251.16;6974211;28;20356;-86
2024/03/06 21:22:31;;;;;;;55.13;35.20;;;;;;;12.69;63.10;99226.41;6974824;28;20352;-85
2024/03/06 21:25:52;;;;;;;55.47;35.43;;;;;;;12.83;62.79;99247.00;6974474;28;20287;-85
2024/03/06 21:29:14;;;;;;;56.03;34.83;;;;;;;12.76;63.09;99257.00;6973045;28;20252;-87
2024/03/06 21:32:36;;;;;;;55.43;35.13;;;;;;;12.72;63.39;99248.47;6975424;28;20233;-86
